createdAt,value
2018-10-11T00:01:48.703Z,17.77
2018-10-11T00:04:17.270Z,18.30
2018-10-11T00:06:45.833Z,16.37
2018-10-11T00:09:14.483Z,17.87
2018-10-11T00:11:43.073Z,17.73
2018-10-11T00:14:11.642Z,16.27
2018-10-11T00:16:40.803Z,16.73
2018-10-11T00:19:09.485Z,16.53
2018-10-11T00:21:38.553Z,17.47
2018-10-11T00:24:07.462Z,17.50
2018-10-11T00:26:36.100Z,17.77
2018-10-11T00:29:04.625Z,17.93
2018-10-11T00:31:33.211Z,16.43
2018-10-11T00:34:01.944Z,17.60
2018-10-11T00:36:30.499Z,17.63
2018-10-11T00:38:59.243Z,17.10
2018-10-11T00:41:27.777Z,17.60
2018-10-11T00:43:56.727Z,17.87
2018-10-11T00:46:25.640Z,17.17
2018-10-11T00:48:54.215Z,17.13
2018-10-11T00:51:22.699Z,17.70
2018-10-11T00:53:51.288Z,17.13
2018-10-11T00:56:19.947Z,17.13
2018-10-11T00:58:48.492Z,18.20
2018-10-11T01:01:17.037Z,18.00
2018-10-11T01:03:45.739Z,18.23
2018-10-11T01:06:14.236Z,18.17
2018-10-11T01:08:42.721Z,18.43
2018-10-11T01:11:11.436Z,17.33
2018-10-11T01:13:40.519Z,18.27
2018-10-11T01:16:09.134Z,19.17
2018-10-11T01:18:37.795Z,18.53
2018-10-11T01:21:06.922Z,18.17
2018-10-11T01:23:36.160Z,18.23
2018-10-11T01:26:04.783Z,17.97
2018-10-11T01:28:33.416Z,18.03
2018-10-11T01:31:07.089Z,19.30
2018-10-11T01:33:35.667Z,17.87
2018-10-11T01:36:04.422Z,17.43
2018-10-11T01:38:33.145Z,17.93
2018-10-11T01:41:01.700Z,18.03
2018-10-11T01:43:30.208Z,17.87
2018-10-11T01:45:58.787Z,17.53
2018-10-11T01:48:27.448Z,17.07
2018-10-11T01:50:56.005Z,17.47
2018-10-11T01:53:25.444Z,18.10
2018-10-11T01:55:53.984Z,18.43
2018-10-11T01:58:22.630Z,18.17
2018-10-11T02:00:51.117Z,18.20
2018-10-11T02:03:19.698Z,18.57
2018-10-11T02:05:48.211Z,17.23
2018-10-11T02:08:16.725Z,18.93
2018-10-11T02:10:45.459Z,19.73
2018-10-11T02:13:14.120Z,19.33
2018-10-11T02:15:42.617Z,19.63
2018-10-11T02:18:11.200Z,19.40
2018-10-11T02:20:39.764Z,17.47
2018-10-11T02:23:08.460Z,18.97
2018-10-11T02:25:37.192Z,18.83
2018-10-11T02:28:06.003Z,19.07
2018-10-11T02:30:34.738Z,18.63
2018-10-11T02:33:03.254Z,19.30
2018-10-11T02:35:31.784Z,18.83
2018-10-11T02:38:00.324Z,18.37
2018-10-11T02:40:29.043Z,18.70
2018-10-11T02:42:57.681Z,18.90
2018-10-11T02:45:26.248Z,19.10
2018-10-11T02:47:54.745Z,19.87
2018-10-11T02:50:23.262Z,18.53
2018-10-11T02:52:51.852Z,20.00
2018-10-11T02:55:25.800Z,19.40
2018-10-11T02:58:05.569Z,20.40
2018-10-11T03:00:35.308Z,18.53
2018-10-11T03:03:12.938Z,18.13
2018-10-11T03:05:44.068Z,17.93
2018-10-11T03:08:29.315Z,18.57
2018-10-11T03:10:58.308Z,17.43
2018-10-11T03:13:27.205Z,17.50
2018-10-11T03:15:55.786Z,19.43
2018-10-11T03:18:24.339Z,19.53
2018-10-11T03:20:53.019Z,19.47
2018-10-11T03:23:21.510Z,18.33
2018-10-11T03:25:50.067Z,18.90
2018-10-11T03:28:18.665Z,18.93
2018-10-11T03:30:47.163Z,18.17
2018-10-11T03:33:16.073Z,21.17
2018-10-11T03:35:45.164Z,19.00
2018-10-11T03:38:14.256Z,18.97
2018-10-11T03:40:43.132Z,18.27
2018-10-11T03:43:11.715Z,17.60
2018-10-11T03:45:40.272Z,19.90
2018-10-11T03:48:09.138Z,20.37
2018-10-11T03:50:37.685Z,21.67
2018-10-11T03:53:06.420Z,20.77
2018-10-11T03:55:35.301Z,20.10
2018-10-11T03:58:03.807Z,18.40
2018-10-11T04:00:32.358Z,18.40
2018-10-11T04:03:00.909Z,19.97
2018-10-11T04:05:29.589Z,19.50
2018-10-11T04:07:58.270Z,20.30
2018-10-11T04:10:26.924Z,19.27
2018-10-11T04:12:55.764Z,18.67
2018-10-11T04:15:24.798Z,19.80
2018-10-11T04:17:53.565Z,19.00
2018-10-11T04:20:22.174Z,18.90
2018-10-11T04:22:50.685Z,19.67
2018-10-11T04:25:19.288Z,18.27
2018-10-11T04:27:48.158Z,19.63
2018-10-11T04:30:16.698Z,18.83
2018-10-11T04:32:45.708Z,18.90
2018-10-11T04:35:14.236Z,18.83
2018-10-11T04:37:42.879Z,18.53
2018-10-11T04:40:11.429Z,19.80
2018-10-11T04:42:40.992Z,18.80
2018-10-11T04:45:09.741Z,20.20
2018-10-11T04:47:38.386Z,19.53
2018-10-11T04:50:06.864Z,21.57
2018-10-11T04:52:35.417Z,21.07
2018-10-11T04:55:04.220Z,20.93
2018-10-11T04:57:32.723Z,20.37
2018-10-11T05:00:01.484Z,20.07
2018-10-11T05:02:30.119Z,20.53
2018-10-11T05:04:58.669Z,20.90
2018-10-11T05:07:27.531Z,19.50
2018-10-11T05:09:56.057Z,21.27
2018-10-11T05:12:24.841Z,20.90
2018-10-11T05:14:53.855Z,20.60
2018-10-11T05:17:22.396Z,20.30
2018-10-11T05:19:51.140Z,20.80
2018-10-11T05:22:19.727Z,21.57
2018-10-11T05:24:48.614Z,21.70
2018-10-11T05:27:17.277Z,19.70
2018-10-11T05:29:45.937Z,21.20
2018-10-11T05:32:14.913Z,20.33
2018-10-11T05:34:43.499Z,20.50
2018-10-11T05:37:12.139Z,21.77
2018-10-11T05:39:40.633Z,19.93
2018-10-11T05:42:09.171Z,20.73
2018-10-11T05:44:37.767Z,21.37
2018-10-11T05:47:06.786Z,21.70
2018-10-11T05:49:35.289Z,21.83
2018-10-11T05:52:04.064Z,21.03
2018-10-11T05:54:32.613Z,21.47
2018-10-11T05:57:01.150Z,20.90
2018-10-11T05:59:29.860Z,22.00
2018-10-11T06:01:58.397Z,21.73
2018-10-11T06:04:27.332Z,20.73
2018-10-11T06:06:55.908Z,21.00
2018-10-11T06:09:24.768Z,21.73
2018-10-11T06:11:53.484Z,21.97
2018-10-11T06:14:22.033Z,21.87
2018-10-11T06:16:50.849Z,20.60
2018-10-11T06:19:19.694Z,22.87
2018-10-11T06:21:48.313Z,21.50
2018-10-11T06:24:17.051Z,22.30
2018-10-11T06:26:45.864Z,21.13
2018-10-11T06:29:14.371Z,23.30
2018-10-11T06:31:43.253Z,22.57
2018-10-11T06:34:11.853Z,22.23
2018-10-11T06:36:41.400Z,24.90
2018-10-11T06:39:10.785Z,33.63
2018-10-11T06:41:39.378Z,30.57
2018-10-11T06:44:08.712Z,27.07
2018-10-11T06:46:37.655Z,25.90
2018-10-11T06:49:07.245Z,24.73
2018-10-11T06:51:35.783Z,23.93
2018-10-11T06:54:04.273Z,22.53
2018-10-11T06:56:32.828Z,21.97
2018-10-11T06:59:01.420Z,25.60
2018-10-11T07:01:30.314Z,24.67
2018-10-11T07:03:58.864Z,23.40
2018-10-11T07:06:27.743Z,21.93
2018-10-11T07:08:56.469Z,22.70
2018-10-11T07:11:25.237Z,23.20
2018-10-11T07:13:53.837Z,22.13
2018-10-11T07:16:22.466Z,21.80
2018-10-11T07:18:51.598Z,22.00
2018-10-11T07:21:20.492Z,21.40
2018-10-11T07:23:49.095Z,22.07
2018-10-11T07:26:18.012Z,33.17
2018-10-11T07:28:46.652Z,22.67
2018-10-11T07:31:15.443Z,23.33
2018-10-11T07:33:44.287Z,23.27
2018-10-11T07:36:12.879Z,23.67
2018-10-11T07:38:41.557Z,23.23
2018-10-11T07:41:10.415Z,24.30
2018-10-11T07:43:39.103Z,32.03
2018-10-11T07:46:07.951Z,33.90
2018-10-11T07:48:36.794Z,33.47
2018-10-11T07:51:05.665Z,38.43
2018-10-11T07:53:34.287Z,51.05
2018-10-11T07:56:03.195Z,44.60
2018-10-11T07:58:31.985Z,43.13
2018-10-11T08:01:00.559Z,46.73
2018-10-11T08:03:29.554Z,49.43
2018-10-11T08:05:58.394Z,50.50
2018-10-11T08:08:27.119Z,50.90
2018-10-11T08:10:56.284Z,54.20
2018-10-11T08:13:25.290Z,52.37
2018-10-11T08:15:54.182Z,48.63
2018-10-11T08:18:22.825Z,47.80
2018-10-11T08:20:51.629Z,42.30
2018-10-11T08:23:21.146Z,41.47
2018-10-11T08:25:50.311Z,37.70
2018-10-11T08:28:18.602Z,33.87
2018-10-11T08:30:47.576Z,27.87
2018-10-11T08:33:16.211Z,28.63
2018-10-11T08:35:44.675Z,26.57
2018-10-11T08:38:13.552Z,27.90
2018-10-11T08:40:41.926Z,27.70
2018-10-11T08:43:10.516Z,27.10
2018-10-11T08:45:39.755Z,25.77
2018-10-11T08:48:08.786Z,24.07
2018-10-11T08:50:37.421Z,22.23
2018-10-11T08:53:06.659Z,22.47
2018-10-11T08:55:35.479Z,17.67
2018-10-11T08:58:04.203Z,16.37
2018-10-11T09:00:32.966Z,16.63
2018-10-11T09:03:01.932Z,14.87
2018-10-11T09:05:30.560Z,15.30
2018-10-11T09:07:59.790Z,13.97
2018-10-11T09:10:38.109Z,13.10
2018-10-11T09:12:58.084Z,11.43
2018-10-11T09:15:27.109Z,11.73
2018-10-11T09:17:55.870Z,10.57
2018-10-11T09:20:24.663Z,9.20
2018-10-11T09:22:53.488Z,9.37
2018-10-11T09:25:22.099Z,8.88
2018-10-11T09:27:50.976Z,9.20
2018-10-11T09:30:19.773Z,9.18
2018-10-11T09:32:48.879Z,8.90
2018-10-11T09:35:18.155Z,7.97
2018-10-11T09:37:47.002Z,8.60
2018-10-11T09:40:15.755Z,7.92
2018-10-11T09:42:45.034Z,8.65
2018-10-11T09:45:13.710Z,7.70
2018-10-11T09:47:42.423Z,9.03
2018-10-11T09:50:11.197Z,8.13
2018-10-11T09:52:39.915Z,8.15
2018-10-11T09:55:08.736Z,8.58
2018-10-11T09:57:38.481Z,8.58
2018-10-11T10:00:14.627Z,8.05
2018-10-11T10:02:43.321Z,8.50
2018-10-11T10:05:12.153Z,8.40
2018-10-11T10:07:41.023Z,9.93
2018-10-11T10:10:10.067Z,8.85
2018-10-11T10:12:38.837Z,9.40
2018-10-11T10:15:07.727Z,9.20
2018-10-11T10:17:37.194Z,8.00
2018-10-11T10:20:06.441Z,11.57
2018-10-11T10:22:35.101Z,11.00
2018-10-11T10:25:03.751Z,8.80
2018-10-11T10:27:32.487Z,9.50
2018-10-11T10:30:05.333Z,9.05
2018-10-11T10:32:33.999Z,9.70
2018-10-11T10:35:02.612Z,8.98
2018-10-11T10:37:31.495Z,9.45
2018-10-11T10:40:00.295Z,9.38
2018-10-11T10:42:28.813Z,10.35
2018-10-11T10:44:57.429Z,10.70
2018-10-11T10:47:26.108Z,10.10
2018-10-11T10:49:54.901Z,9.80
2018-10-11T10:52:23.465Z,9.53
2018-10-11T10:54:52.328Z,9.53
2018-10-11T10:57:21.509Z,9.40
2018-10-11T10:59:50.664Z,8.88
2018-10-11T11:02:19.400Z,9.20
2018-10-11T11:04:48.228Z,8.65
2018-10-11T11:07:16.908Z,8.13
2018-10-11T11:09:45.511Z,7.83
2018-10-11T11:12:14.397Z,9.33
2018-10-11T11:14:42.972Z,7.72
2018-10-11T11:17:11.716Z,8.35
2018-10-11T11:19:40.337Z,8.25
2018-10-11T11:22:08.950Z,8.08
2018-10-11T11:24:38.282Z,8.90
2018-10-11T11:27:07.005Z,8.30
2018-10-11T11:29:35.764Z,8.03
2018-10-11T11:32:04.530Z,8.80
2018-10-11T11:34:33.133Z,8.58
2018-10-11T11:37:01.829Z,8.35
2018-10-11T11:39:30.601Z,7.78
2018-10-11T11:41:59.443Z,7.33
2018-10-11T11:44:28.232Z,8.25
2018-10-11T11:46:57.316Z,8.30
2018-10-11T11:49:25.928Z,8.20
2018-10-11T11:51:54.823Z,7.87
2018-10-11T11:54:23.518Z,7.72
2018-10-11T11:56:52.933Z,8.03
2018-10-11T11:59:21.770Z,7.92
2018-10-11T12:01:50.822Z,8.05
2018-10-11T12:04:19.774Z,7.53
2018-10-11T12:06:48.645Z,7.37
2018-10-11T12:09:17.499Z,6.90
2018-10-11T12:11:46.684Z,6.53
2018-10-11T12:14:15.685Z,6.20
2018-10-11T12:16:44.433Z,6.70
2018-10-11T12:19:13.154Z,5.83
2018-10-11T12:21:41.747Z,5.92
2018-10-11T12:24:10.563Z,5.80
2018-10-11T12:26:39.280Z,5.87
2018-10-11T12:29:08.533Z,6.30
2018-10-11T12:31:37.108Z,5.22
2018-10-11T12:34:05.887Z,5.62
2018-10-11T12:36:34.749Z,5.60
2018-10-11T12:39:04.731Z,5.17
2018-10-11T12:41:33.298Z,5.30
2018-10-11T12:44:02.260Z,5.58
2018-10-11T12:46:32.521Z,5.62
2018-10-11T12:49:00.013Z,5.65
2018-10-11T12:51:28.921Z,5.15
2018-10-11T12:53:57.496Z,5.28
2018-10-11T12:56:26.441Z,5.75
2018-10-11T12:58:55.210Z,5.05
2018-10-11T13:01:24.258Z,5.30
2018-10-11T13:03:52.733Z,5.65
2018-10-11T13:06:21.940Z,5.95
2018-10-11T13:08:51.069Z,5.65
2018-10-11T13:11:19.990Z,5.15
2018-10-11T13:13:52.019Z,5.35
2018-10-11T13:16:17.570Z,5.42
2018-10-11T13:18:46.523Z,5.58
2018-10-11T13:21:15.428Z,5.92
2018-10-11T13:23:44.399Z,5.55
2018-10-11T13:26:13.337Z,6.03
2018-10-11T13:28:42.284Z,5.62
2018-10-11T13:31:11.163Z,5.70
2018-10-11T13:33:40.152Z,5.72
2018-10-11T13:36:13.003Z,5.55
2018-10-11T13:38:42.145Z,5.30
2018-10-11T13:41:11.360Z,5.90
2018-10-11T13:43:39.853Z,5.90
2018-10-11T13:46:09.173Z,6.47
2018-10-11T13:48:38.247Z,6.47
2018-10-11T13:51:07.326Z,6.10
2018-10-11T13:53:36.646Z,6.17
2018-10-11T13:56:05.580Z,6.22
2018-10-11T13:58:34.399Z,6.20
2018-10-11T14:01:03.177Z,6.12
2018-10-11T14:03:32.010Z,6.10
2018-10-11T14:06:00.981Z,5.60
2018-10-11T14:08:29.823Z,5.70
2018-10-11T14:10:58.498Z,5.65
2018-10-11T14:13:27.386Z,5.80
2018-10-11T14:15:56.557Z,5.87
2018-10-11T14:18:25.299Z,5.90
2018-10-11T14:20:54.628Z,6.35
2018-10-11T14:23:23.646Z,6.22
2018-10-11T14:25:53.006Z,5.58
2018-10-11T14:28:22.127Z,5.85
2018-10-11T14:30:51.216Z,5.17
2018-10-11T14:33:20.512Z,5.97
2018-10-11T14:35:49.728Z,5.70
2018-10-11T14:38:18.685Z,5.40
2018-10-11T14:40:47.712Z,6.17
2018-10-11T14:43:17.157Z,6.80
2018-10-11T14:45:46.429Z,6.40
2018-10-11T14:48:16.391Z,6.65
2018-10-11T14:50:45.532Z,7.35
2018-10-11T14:53:14.560Z,7.58
2018-10-11T14:55:43.402Z,8.08
2018-10-11T14:58:12.018Z,7.85
2018-10-11T15:00:40.828Z,8.23
2018-10-11T15:03:09.752Z,7.95
2018-10-11T15:05:38.724Z,7.67
2018-10-11T15:08:07.599Z,7.58
2018-10-11T15:10:36.258Z,7.90
2018-10-11T15:13:05.180Z,7.75
2018-10-11T15:15:34.296Z,8.38
2018-10-11T15:18:03.110Z,8.10
2018-10-11T15:20:32.076Z,8.45
2018-10-11T15:23:01.189Z,8.60
2018-10-11T15:25:30.173Z,8.60
2018-10-11T15:27:58.966Z,9.10
2018-10-11T15:30:27.941Z,8.65
2018-10-11T15:32:56.765Z,8.75
2018-10-11T15:35:25.776Z,9.50
2018-10-11T15:37:54.681Z,9.38
2018-10-11T15:40:23.931Z,8.80
2018-10-11T15:42:52.973Z,9.80
2018-10-11T15:45:22.085Z,10.23
2018-10-11T15:47:50.685Z,9.65
2018-10-11T15:50:19.454Z,9.78
2018-10-11T15:52:48.346Z,9.45
2018-10-11T15:55:17.173Z,9.65
2018-10-11T15:57:46.124Z,9.65
2018-10-11T16:00:14.716Z,9.75
2018-10-11T16:02:43.648Z,10.00
2018-10-11T16:05:12.604Z,11.13
2018-10-11T16:07:41.232Z,10.87
2018-10-11T16:10:10.164Z,12.37
2018-10-11T16:12:38.790Z,10.23
2018-10-11T16:15:07.409Z,9.93
2018-10-11T16:17:36.535Z,10.03
2018-10-11T16:20:05.293Z,9.67
2018-10-11T16:22:33.930Z,9.63
2018-10-11T16:25:02.641Z,9.60
2018-10-11T16:27:31.914Z,9.50
2018-10-11T16:30:00.579Z,9.80
2018-10-11T16:32:29.478Z,9.97
2018-10-11T16:34:58.472Z,10.23
2018-10-11T16:37:27.408Z,9.70
2018-10-11T16:39:56.303Z,9.87
2018-10-11T16:42:25.393Z,10.47
2018-10-11T16:44:54.293Z,10.20
2018-10-11T16:47:23.109Z,10.90
2018-10-11T16:49:52.062Z,10.03
2018-10-11T16:52:21.103Z,9.97
2018-10-11T16:54:50.066Z,10.50
2018-10-11T16:57:19.380Z,10.43
2018-10-11T16:59:48.456Z,10.10
2018-10-11T17:02:17.082Z,10.10
2018-10-11T17:04:45.974Z,10.20
2018-10-11T17:07:14.914Z,10.40
2018-10-11T17:09:43.755Z,9.50
2018-10-11T17:12:12.576Z,9.37
2018-10-11T17:14:41.557Z,8.80
2018-10-11T17:17:10.399Z,10.07
2018-10-11T17:19:39.012Z,8.83
2018-10-11T17:22:07.979Z,9.50
2018-10-11T17:24:36.704Z,8.47
2018-10-11T17:27:05.474Z,8.53
2018-10-11T17:29:34.546Z,8.40
2018-10-11T17:32:03.451Z,8.23
2018-10-11T17:34:32.473Z,8.57
2018-10-11T17:37:01.107Z,8.53
2018-10-11T17:39:30.373Z,8.30
2018-10-11T17:41:59.444Z,8.67
2018-10-11T17:44:28.374Z,9.63
2018-10-11T17:46:57.499Z,8.50
2018-10-11T17:49:26.813Z,9.00
2018-10-11T17:51:55.744Z,9.67
2018-10-11T17:54:24.720Z,9.07
2018-10-11T17:56:54.034Z,8.97
2018-10-11T17:59:22.974Z,8.67
2018-10-11T18:01:51.983Z,8.23
2018-10-11T18:04:20.764Z,8.60
2018-10-11T18:06:49.658Z,8.87
2018-10-11T18:09:18.816Z,9.50
2018-10-11T18:11:47.763Z,8.93
2018-10-11T18:14:16.688Z,8.60
2018-10-11T18:16:46.243Z,8.97
2018-10-11T18:19:15.320Z,8.70
2018-10-11T18:21:44.426Z,8.90
2018-10-11T18:24:13.605Z,9.47
2018-10-11T18:26:42.368Z,9.00
2018-10-11T18:29:11.353Z,8.67
2018-10-11T18:31:40.274Z,8.90
2018-10-11T18:34:09.318Z,8.53
2018-10-11T18:36:38.291Z,8.90
2018-10-11T18:39:14.216Z,8.07
2018-10-11T18:41:43.360Z,9.10
2018-10-11T18:44:12.801Z,8.73
2018-10-11T18:46:41.755Z,9.00
2018-10-11T18:49:10.899Z,8.33
2018-10-11T18:51:40.031Z,9.20
2018-10-11T18:54:09.241Z,9.00
2018-10-11T18:56:38.247Z,8.67
2018-10-11T18:59:07.217Z,8.87
2018-10-11T19:01:36.111Z,8.57
2018-10-11T19:04:05.185Z,8.63
2018-10-11T19:06:33.982Z,8.30
2018-10-11T19:09:03.063Z,8.37
2018-10-11T19:11:31.850Z,9.07
2018-10-11T19:14:00.795Z,8.07
2018-10-11T19:16:30.212Z,8.23
2018-10-11T19:18:59.394Z,9.23
2018-10-11T19:21:28.925Z,8.73
2018-10-11T19:23:57.906Z,8.97
2018-10-11T19:26:27.258Z,8.93
2018-10-11T19:28:56.271Z,8.73
2018-10-11T19:31:25.511Z,9.20
2018-10-11T19:33:54.575Z,8.50
2018-10-11T19:36:23.183Z,8.70
2018-10-11T19:38:52.220Z,8.40
2018-10-11T19:41:21.015Z,9.63
2018-10-11T19:43:50.123Z,8.77
2018-10-11T19:46:18.967Z,9.33
2018-10-11T19:48:48.050Z,9.07
2018-10-11T19:51:17.191Z,9.40
2018-10-11T19:53:46.039Z,9.13
2018-10-11T19:56:14.967Z,8.53
2018-10-11T19:58:43.961Z,8.63
2018-10-11T20:01:12.996Z,9.40
2018-10-11T20:03:42.150Z,9.60
2018-10-11T20:06:11.366Z,9.33
2018-10-11T20:08:40.223Z,9.97
2018-10-11T20:11:08.937Z,9.57
2018-10-11T20:13:37.457Z,10.77
2018-10-11T20:16:06.555Z,10.10
2018-10-11T20:18:35.603Z,10.27
2018-10-11T20:21:04.273Z,10.23
2018-10-11T20:23:33.186Z,9.77
2018-10-11T20:26:02.245Z,10.47
2018-10-11T20:28:31.253Z,9.87
2018-10-11T20:31:00.050Z,9.50
2018-10-11T20:33:28.809Z,9.73
2018-10-11T20:35:57.479Z,9.10
2018-10-11T20:38:26.903Z,10.63
2018-10-11T20:40:55.955Z,11.10
2018-10-11T20:43:24.747Z,10.73
2018-10-11T20:45:53.568Z,10.50
2018-10-11T20:48:22.237Z,9.80
2018-10-11T20:50:51.080Z,10.03
2018-10-11T20:53:20.137Z,9.50
2018-10-11T20:55:48.952Z,10.23
2018-10-11T20:58:17.740Z,10.90
2018-10-11T21:00:46.622Z,10.30
2018-10-11T21:03:15.612Z,11.20
2018-10-11T21:05:44.180Z,11.50
2018-10-11T21:08:13.206Z,10.93
2018-10-11T21:10:42.169Z,10.87
2018-10-11T21:13:10.824Z,11.67
2018-10-11T21:15:39.381Z,11.17
2018-10-11T21:18:08.235Z,11.93
2018-10-11T21:20:37.065Z,10.80
2018-10-11T21:23:05.663Z,10.80
2018-10-11T21:25:34.385Z,12.07
2018-10-11T21:28:03.024Z,11.63
2018-10-11T21:30:31.801Z,11.43
2018-10-11T21:33:00.334Z,11.80
2018-10-11T21:35:28.880Z,12.07
2018-10-11T21:37:57.522Z,12.10
2018-10-11T21:40:26.330Z,13.17
2018-10-11T21:42:54.897Z,11.17
2018-10-11T21:45:23.808Z,12.27
2018-10-11T21:47:52.561Z,11.53
2018-10-11T21:50:21.152Z,11.90
2018-10-11T21:52:50.094Z,11.73
2018-10-11T21:55:18.850Z,12.40
2018-10-11T21:57:48.061Z,12.90
2018-10-11T22:00:16.663Z,12.00
2018-10-11T22:02:45.574Z,11.90
2018-10-11T22:05:14.439Z,11.47
2018-10-11T22:07:43.049Z,11.13
2018-10-11T22:10:12.146Z,12.67
2018-10-11T22:12:41.018Z,12.43
2018-10-11T22:15:10.082Z,12.50
2018-10-11T22:17:38.493Z,11.53
2018-10-11T22:20:07.041Z,12.70
2018-10-11T22:22:35.536Z,12.23
2018-10-11T22:25:04.269Z,12.67
2018-10-11T22:27:32.792Z,12.90
2018-10-11T22:30:01.413Z,13.33
2018-10-11T22:32:29.938Z,13.90
2018-10-11T22:34:58.434Z,12.83
2018-10-11T22:37:26.971Z,12.47
2018-10-11T22:39:55.672Z,12.03
2018-10-11T22:42:24.438Z,12.50
2018-10-11T22:44:53.377Z,12.83
2018-10-11T22:47:22.151Z,13.53
2018-10-11T22:49:50.763Z,12.60
2018-10-11T22:52:19.316Z,12.83
2018-10-11T22:54:48.085Z,13.13
2018-10-11T22:57:16.642Z,13.60
2018-10-11T22:59:45.171Z,13.50
2018-10-11T23:02:13.743Z,13.13
2018-10-11T23:04:42.278Z,13.00
2018-10-11T23:07:11.367Z,12.90
2018-10-11T23:09:40.378Z,13.63
2018-10-11T23:12:09.056Z,12.37
2018-10-11T23:14:37.878Z,13.50
2018-10-11T23:17:06.834Z,11.97
2018-10-11T23:19:35.361Z,13.80
2018-10-11T23:22:04.044Z,12.87
2018-10-11T23:24:32.579Z,13.93
2018-10-11T23:27:01.287Z,13.30
2018-10-11T23:29:30.102Z,13.53
2018-10-11T23:31:58.790Z,13.17
2018-10-11T23:34:27.556Z,13.40
2018-10-11T23:36:56.149Z,13.10
2018-10-11T23:39:24.907Z,14.27
2018-10-11T23:41:53.465Z,13.63
2018-10-11T23:44:22.026Z,13.67
2018-10-11T23:46:50.589Z,13.30
2018-10-11T23:49:19.156Z,12.70
2018-10-11T23:51:47.800Z,13.87
2018-10-11T23:54:16.305Z,12.53
2018-10-11T23:56:44.844Z,13.70
2018-10-11T23:59:13.625Z,13.37
